211150Z 32014KT 290V350 CAVOK 17/02 Q1011=

RRA 210833Z 2109/2118 31015G25KT CAVOK=

Aktuell METAR/TAF ESNU/UME

Källa: Luftfartsverket (aro.lfv.se)